Nearby METAR Reports

 

KSJC - San Jose, California, USA
Distance from station: NE 9mi, 14km
Updated: Mon, 30-Nov-2020 5:53pm PST
Few Clouds
Few Clouds
 Wind from N
Wind: N 3 mph , 6 km/h
Temperature: 55°F , 13°C
Dew Point: 41°F , 5°C
Humidity: 59%
Barometer: 30.25 inHg , 1024.4 hPa
Clouds: Few Clouds
Visibility: 10 miles , 16 km
Cloud details: Few Clouds 7000 ft
2020/12/01 01:53 KSJC 010153Z 01003KT 10SM FEW070 13/05 A3025 RMK AO2 SLP244 T01330050
KRHV - San Jose/Reid, California, USA
Distance from station: ENE 12mi, 19km
Updated: Mon, 30-Nov-2020 4:50pm PST
NOT Current
Clear
Clear
 Wind from W
Wind: W 5 mph , 7 km/h
Temperature: 57°F , 14°C
Dew Point: 39°F , 4°C
Humidity: 51%
Barometer: 30.25 inHg , 1024.4 hPa
Clouds: Clear
Visibility: 10 miles , 16 km
2020/12/01 00:50 KRHV 010050Z 28004KT 10SM SKC 14/04 A3025
 
KPAO - Palo Alto, California, USA
Distance from station: NNW 14mi, 23km
Updated: Mon, 30-Nov-2020 5:47pm PST
Clear
Clear
 Wind from calm
Wind: Calm
Temperature: 52°F , 11°C
Dew Point: 45°F , 7°C
Humidity: 77%
Barometer: 30.25 inHg , 1024.4 hPa
Clouds: Clear
Visibility: 10 miles , 16 km
2020/12/01 01:47 KPAO 010147Z 00000KT 10SM SKC 11/07 A3025
KOAK - Oakland, California, USA
Distance from station: NNW 31mi, 50km
Updated: Mon, 30-Nov-2020 5:53pm PST
Few Clouds
Few Clouds
 Wind from WNW
Wind: WNW 6 mph , 9 km/h
Temperature: 54°F , 12°C
Dew Point: 46°F , 8°C
Humidity: 77%
Barometer: 30.26 inHg , 1024.7 hPa
Clouds: Few Clouds
Visibility: 10 miles , 16 km
Cloud details: Few Clouds 20000 ft
2020/12/01 01:53 KOAK 010153Z 29005KT 10SM FEW200 12/08 A3026 RMK AO2 SLP247 T01220083
 
KSQL - San Carlos Airpo, California, USA
Distance from station: NW 21mi, 34km
Updated: Mon, 30-Nov-2020 5:52pm PST
Clear
Clear
 Wind from calm
Wind: Calm
Temperature: 55°F , 13°C
Dew Point: 34°F , 1°C
Humidity: 44%
Barometer: 30.26 inHg , 1024.7 hPa
Clouds: Clear
Visibility: 10 miles , 16 km
2020/12/01 01:52 KSQL 010152Z 00000KT 10SM SKC 13/01 A3026
KSFO - San Francisco, California, USA
Distance from station: NW 30mi, 49km
Updated: Mon, 30-Nov-2020 5:56pm PST
Few Clouds
Few Clouds
 Wind from WNW
Wind: WNW 14 mph , 22 km/h
Temperature: 54°F , 12°C
Dew Point: 45°F , 7°C
Humidity: 72%
Barometer: 30.25 inHg , 1024.4 hPa
Clouds: Few Clouds
Visibility: 10 miles , 16 km
Cloud details: Few Clouds 20000 ft
2020/12/01 01:56 KSFO 010156Z 30012KT 10SM FEW200 12/07 A3025 RMK AO2 SLP243 T01170072
 
KE16 - San Martin, California, USA
Distance from station: ESE 27mi, 43km
Updated: Mon, 30-Nov-2020 6:35pm PST
Clear
Clear
 Wind from NW
Wind: NW 8 mph , 13 km/h
Temperature: 55°F , 13°C
Dew Point: 37°F , 3°C
Humidity: 51%
Barometer: 30.26 inHg , 1024.7 hPa
Clouds: Clear
Visibility: 10 miles , 16 km
2020/12/01 02:35 KE16 010235Z AUTO 31007KT 10SM CLR 13/03 A3026 RMK AO2
KWVI - Watsonville, California, USA
Distance from station: SSE 27mi, 44km
Updated: Mon, 30-Nov-2020 5:53pm PST
Clear
Clear
 Wind from N
Wind: N 3 mph , 6 km/h
Temperature: 54°F , 12°C
Dew Point: 43°F , 6°C
Humidity: 67%
Barometer: 30.24 inHg , 1024 hPa
Clouds: Clear
Visibility: 10 miles , 16 km
2020/12/01 01:53 KWVI 010153Z AUTO 35003KT 10SM CLR 12/06 A3024 RMK AO2 SLP240 T01170061
 
KHAF - Half Moon Bay, California, USA
Distance from station: WNW 31mi, 50km
Updated: Mon, 30-Nov-2020 6:35pm PST
Clear
Clear
 Wind from E
Wind: E 5 mph , 7 km/h
Temperature: 46°F , 8°C
Wind Chill: 44°F , 7°C
Dew Point: 39°F , 4°C
Humidity: 76%
Barometer: 30.26 inHg , 1024.7 hPa
Clouds: Clear
Visibility: 8 miles , 13 km
2020/12/01 02:35 KHAF 010235Z AUTO 08004KT 8SM CLR 08/04 A3026 RMK AO2
KHWD - Hayward, California, USA
Distance from station: N 28mi, 44km
Updated: Mon, 30-Nov-2020 5:54pm PST
Clear
Clear
 Wind from calm
Wind: Calm
Temperature: 54°F , 12°C
Dew Point: 45°F , 7°C
Humidity: 72%
Barometer: 30.25 inHg , 1024.4 hPa
Clouds: Clear
Visibility: 10 miles , 16 km
2020/12/01 01:54 KHWD 010154Z 00000KT 10SM CLR 12/07 A3025 RMK AO2 SLP253 T01220072
 
KLVK - Livermore, California, USA
Distance from station: NNE 31mi, 51km
Updated: Mon, 30-Nov-2020 5:53pm PST
Clear
Clear
 Wind from calm
Wind: Calm
Temperature: 55°F , 13°C
Dew Point: 37°F , 3°C
Humidity: 51%
Barometer: 30.24 inHg , 1024 hPa
Clouds: Clear
Visibility: 10 miles , 16 km
2020/12/01 01:53 KLVK 010153Z 00000KT 10SM CLR 13/03 A3024 RMK AO2 SLP239 T01280028